Bethany, Mississippi
Current Conditions -  °F | °C
As of 2:53 PM on Friday 31 Oct 2014 (Local Time) from KTUP Reporting Station
Overcast Overcast  
Wind Chill: 58°   Ceiling: 6000
Heat Index: 58°   Visibility: 10mi
Dew Point: 45°   Wind: 18mph
Humidity: 62%   Direction: 10°N
Pressure: 30.05"   Gusts: 25mph
Location:  34.5357°N, 88.6348°W
Report Text: KTUP 311953Z AUTO 01016G22KT 10SM SCT029 SCT037 OVC060 14/07 A3005 RMK AO2 PK WND 01026/1930 SLP175 T01440072
Loading
Personal Weather Stations






























Interactive Weather Map
Tropical Storm Tracking
New forecast layout! Learn more

10-Day Weather Forecast

Advertisements
Track Severe Weather on mobile